Time,TemperatureF,DewpointF,PressureIn,WindDirection,WindDirectionDegrees,WindSpeedMPH,WindSpeedGustMPH,Humidity,HourlyPrecipIn,Conditions,Clouds,dailyrainin,SoftwareType,DateUTC
2013-07-10 00:04:00,85.2,67.2,29.96,South,180,0.0,2.0,55,0.00,,---,0.00,VWS V14.01,2013-07-10 05:04:00,
2013-07-10 00:09:00,85.1,67.1,29.96,South,180,0.0,3.0,55,0.00,,---,0.00,VWS V14.01,2013-07-10 05:09:00,
2013-07-10 00:14:00,84.9,67.5,29.96,South,180,0.0,1.0,56,0.00,,---,0.00,VWS V14.01,2013-07-10 05:14:00,
2013-07-10 00:19:00,84.5,67.1,29.97,South,180,1.0,1.0,56,0.00,,---,0.00,VWS V14.01,2013-07-10 05:19:00,
2013-07-10 00:24:00,84.2,67.3,29.97,South,180,2.0,2.0,57,0.00,,---,0.00,VWS V14.01,2013-07-10 05:24:00,
2013-07-10 00:29:00,83.9,67.6,29.97,South,180,0.0,2.0,58,0.00,,---,0.00,VWS V14.01,2013-07-10 05:29:00,
2013-07-10 00:34:00,83.6,67.8,29.97,South,180,2.0,2.0,59,0.00,,---,0.00,VWS V14.01,2013-07-10 05:34:00,
2013-07-10 00:39:00,82.8,67.5,29.97,South,180,0.0,4.0,60,0.00,,---,0.00,VWS V14.01,2013-07-10 05:39:00,
2013-07-10 00:45:00,83.0,67.2,29.97,South,177,0.0,4.0,59,0.00,,---,0.00,VWS V14.01,2013-07-10 05:45:00,
2013-07-10 00:50:00,83.0,67.2,29.97,South,174,1.0,4.0,59,0.00,,---,0.00,VWS V14.01,2013-07-10 05:50:00,
2013-07-10 00:55:00,83.3,67.5,29.97,South,176,2.0,4.0,59,0.00,,---,0.00,VWS V14.01,2013-07-10 05:55:00,
2013-07-10 01:00:00,83.6,67.3,29.97,South,169,4.0,5.0,58,0.00,,---,0.00,VWS V14.01,2013-07-10 06:00:00,
2013-07-10 01:05:00,83.8,67.5,29.97,South,187,3.0,3.0,58,0.00,,---,0.00,VWS V14.01,2013-07-10 06:05:00,
2013-07-10 01:10:00,84.0,67.1,29.97,South,173,1.0,4.0,57,0.00,,---,0.00,VWS V14.01,2013-07-10 06:10:00,
2013-07-10 01:15:00,84.2,67.3,29.97,SSW,199,5.0,5.0,57,0.00,,---,0.00,VWS V14.01,2013-07-10 06:15:00,
2013-07-10 01:20:00,84.3,67.4,29.97,SSW,192,6.0,7.0,57,0.00,,---,0.00,VWS V14.01,2013-07-10 06:20:00,
2013-07-10 01:25:00,84.5,67.6,29.97,South,175,3.0,7.0,57,0.00,,---,0.00,VWS V14.01,2013-07-10 06:25:00,
2013-07-10 01:31:00,84.7,67.8,29.97,SSW,202,4.0,7.0,57,0.00,,---,0.00,VWS V14.01,2013-07-10 06:31:00,
2013-07-10 01:36:00,84.9,68.0,29.97,South,182,3.0,7.0,57,0.00,,---,0.00,VWS V14.01,2013-07-10 06:36:00,
2013-07-10 01:41:00,85.2,68.3,29.98,SSW,213,6.0,6.0,57,0.00,,---,0.00,VWS V14.01,2013-07-10 06:41:00,
2013-07-10 01:46:00,85.3,68.3,29.98,South,174,2.0,10.0,57,0.00,,---,0.00,VWS V14.01,2013-07-10 06:46:00,
2013-07-10 01:51:00,85.3,68.3,29.97,SW,221,1.0,9.0,57,0.00,,---,0.00,VWS V14.01,2013-07-10 06:51:00,
2013-07-10 01:56:00,85.2,68.3,29.97,South,190,2.0,8.0,57,0.00,,---,0.00,VWS V14.01,2013-07-10 06:56:00,
2013-07-10 02:01:00,85.1,68.2,29.97,SSW,200,7.0,10.0,57,0.00,,---,0.00,VWS V14.01,2013-07-10 07:01:00,
2013-07-10 02:06:00,84.9,68.0,29.97,SSW,196,2.0,9.0,57,0.00,,---,0.00,VWS V14.01,2013-07-10 07:06:00,
2013-07-10 02:11:00,84.7,68.3,29.97,South,169,7.0,10.0,58,0.00,,---,0.00,VWS V14.01,2013-07-10 07:11:00,
2013-07-10 02:16:00,84.7,68.8,29.97,South,176,7.0,9.0,59,0.00,,---,0.00,VWS V14.01,2013-07-10 07:16:00,
2013-07-10 02:21:00,84.7,68.8,29.97,South,188,8.0,11.0,59,0.00,,---,0.00,VWS V14.01,2013-07-10 07:21:00,
2013-07-10 02:27:00,84.6,69.2,29.97,South,184,6.0,9.0,60,0.00,,---,0.00,VWS V14.01,2013-07-10 07:27:00,
2013-07-10 02:32:00,84.5,69.6,29.97,SW,223,5.0,12.0,61,0.00,,---,0.00,VWS V14.01,2013-07-10 07:32:00,
2013-07-10 02:37:00,84.4,69.5,29.97,South,172,2.0,10.0,61,0.00,,---,0.00,VWS V14.01,2013-07-10 07:37:00,
2013-07-10 02:42:00,84.3,69.9,29.97,SSE,167,5.0,11.0,62,0.00,,---,0.00,VWS V14.01,2013-07-10 07:42:00,
2013-07-10 02:47:00,84.1,69.7,29.97,SSW,205,5.0,14.0,62,0.00,,---,0.00,VWS V14.01,2013-07-10 07:47:00,
2013-07-10 02:52:00,84.0,70.1,29.97,SSW,202,5.0,10.0,63,0.00,,---,0.00,VWS V14.01,2013-07-10 07:52:00,
2013-07-10 02:57:00,83.9,70.0,29.97,SSE,148,10.0,10.0,63,0.00,,---,0.00,VWS V14.01,2013-07-10 07:57:00,
2013-07-10 03:02:00,83.8,70.3,29.97,South,180,5.0,7.0,64,0.00,,---,0.00,VWS V14.01,2013-07-10 08:02:00,
2013-07-10 03:07:00,83.7,70.2,29.97,South,182,5.0,6.0,64,0.00,,---,0.00,VWS V14.01,2013-07-10 08:07:00,
2013-07-10 03:12:00,83.6,70.6,29.97,South,180,9.0,12.0,65,0.00,,---,0.00,VWS V14.01,2013-07-10 08:12:00,
2013-07-10 03:17:00,83.7,70.7,29.97,South,184,3.0,12.0,65,0.00,,---,0.00,VWS V14.01,2013-07-10 08:17:00,
2013-07-10 03:22:00,83.6,71.1,29.97,South,180,7.0,11.0,66,0.00,,---,0.00,VWS V14.01,2013-07-10 08:22:00,
2013-07-10 07:30:00,81.5,72.4,30.00,SSW,202,4.0,9.0,74,0.00,,---,0.00,VWS V14.01,2013-07-10 12:30:00,
2013-07-10 08:28:00,83.4,73.4,30.00,SW,221,6.0,6.0,72,0.00,,---,0.00,VWS V14.01,2013-07-10 13:28:00,
2013-07-10 08:33:00,83.8,73.4,30.00,SW,223,4.0,7.0,71,0.00,,---,0.00,VWS V14.01,2013-07-10 13:33:00,
2013-07-10 08:38:00,84.4,73.6,30.00,SSW,211,7.0,8.0,70,0.00,,---,0.00,VWS V14.01,2013-07-10 13:38:00,
2013-07-10 08:43:00,84.7,73.4,30.00,WSW,251,8.0,9.0,69,0.00,,---,0.00,VWS V14.01,2013-07-10 13:43:00,
2013-07-10 08:49:00,84.9,74.0,30.00,South,191,3.0,7.0,70,0.00,,---,0.00,VWS V14.01,2013-07-10 13:49:00,
2013-07-10 08:54:00,85.9,73.7,30.00,WSW,241,6.0,9.0,67,0.00,,---,0.00,VWS V14.01,2013-07-10 13:54:00,
2013-07-10 08:59:00,86.0,73.8,30.00,SSW,209,3.0,8.0,67,0.00,,---,0.00,VWS V14.01,2013-07-10 13:59:00,
2013-07-10 09:04:00,86.1,73.9,30.00,SW,217,4.0,11.0,67,0.00,,---,0.00,VWS V14.01,2013-07-10 14:04:00,
2013-07-10 09:09:00,86.0,73.8,30.00,SSW,194,5.0,9.0,67,0.00,,---,0.00,VWS V14.01,2013-07-10 14:09:00,
2013-07-10 09:14:00,86.6,73.4,30.00,SW,223,4.0,8.0,65,0.00,,---,0.00,VWS V14.01,2013-07-10 14:14:00,
2013-07-10 09:19:00,86.6,73.0,30.00,SW,218,9.0,10.0,64,0.00,,---,0.00,VWS V14.01,2013-07-10 14:19:00,
2013-07-10 09:25:00,86.6,72.5,30.00,SSW,210,4.0,4.0,63,0.00,,---,0.00,VWS V14.01,2013-07-10 14:25:00,
2013-07-10 09:30:00,87.0,72.4,30.00,South,178,3.0,11.0,62,0.00,,---,0.00,VWS V14.01,2013-07-10 14:30:00,
2013-07-10 09:35:00,87.5,72.4,30.00,SW,232,3.0,10.0,61,0.00,,---,0.00,VWS V14.01,2013-07-10 14:35:00,
2013-07-10 09:40:00,87.8,72.7,30.00,South,186,10.0,10.0,61,0.00,,---,0.00,VWS V14.01,2013-07-10 14:40:00,
2013-07-10 09:46:00,88.1,72.5,30.00,SSW,209,8.0,8.0,60,0.00,,---,0.00,VWS V14.01,2013-07-10 14:46:00,
2013-07-10 09:51:00,88.5,73.3,30.00,South,185,4.0,6.0,61,0.00,,---,0.00,VWS V14.01,2013-07-10 14:51:00,
2013-07-10 09:56:00,89.2,74.0,30.00,SSW,206,3.0,8.0,61,0.00,,---,0.00,VWS V14.01,2013-07-10 14:56:00,
2013-07-10 10:01:00,89.5,72.3,30.00,SSW,193,5.0,10.0,57,0.00,,---,0.00,VWS V14.01,2013-07-10 15:01:00,
2013-07-10 10:06:00,89.6,71.8,30.00,SSW,201,7.0,11.0,56,0.00,,---,0.00,VWS V14.01,2013-07-10 15:06:00,
2013-07-10 10:11:00,89.6,70.8,29.99,SW,219,9.0,10.0,54,0.00,,---,0.00,VWS V14.01,2013-07-10 15:11:00,
2013-07-10 10:16:00,89.9,70.5,30.00,South,181,6.0,11.0,53,0.00,,---,0.00,VWS V14.01,2013-07-10 15:16:00,
2013-07-10 10:21:00,90.0,70.6,30.00,SW,217,6.0,10.0,53,0.00,,---,0.00,VWS V14.01,2013-07-10 15:21:00,
2013-07-10 10:26:00,89.9,70.5,30.00,South,179,2.0,11.0,53,0.00,,---,0.00,VWS V14.01,2013-07-10 15:26:00,
2013-07-10 10:31:00,90.5,71.1,30.00,SW,214,3.0,8.0,53,0.00,,---,0.00,VWS V14.01,2013-07-10 15:31:00,
2013-07-10 10:36:00,91.3,71.8,30.00,West,267,6.0,6.0,53,0.00,,---,0.00,VWS V14.01,2013-07-10 15:36:00,
2013-07-10 10:41:00,91.9,71.8,30.00,SSW,209,5.0,9.0,52,0.00,,---,0.00,VWS V14.01,2013-07-10 15:41:00,
2013-07-10 10:46:00,92.0,71.9,30.00,WSW,242,5.0,8.0,52,0.00,,---,0.00,VWS V14.01,2013-07-10 15:46:00,
2013-07-10 10:52:00,91.9,70.6,30.00,WSW,242,5.0,10.0,50,0.00,,---,0.00,VWS V14.01,2013-07-10 15:52:00,
2013-07-10 10:57:00,91.8,71.1,30.00,SW,217,6.0,9.0,51,0.00,,---,0.00,VWS V14.01,2013-07-10 15:57:00,
2013-07-10 11:02:00,91.8,71.1,30.00,SSW,192,10.0,10.0,51,0.00,,---,0.00,VWS V14.01,2013-07-10 16:02:00,
2013-07-10 11:07:00,91.9,70.6,30.00,South,173,4.0,9.0,50,0.00,,---,0.00,VWS V14.01,2013-07-10 16:07:00,
2013-07-10 11:12:00,92.4,71.7,30.00,SSW,194,3.0,7.0,51,0.00,,---,0.00,VWS V14.01,2013-07-10 16:12:00,
2013-07-10 11:17:00,92.9,71.5,29.99,SSW,212,3.0,9.0,50,0.00,,---,0.00,VWS V14.01,2013-07-10 16:17:00,
2013-07-10 11:22:00,93.3,71.9,29.99,SW,226,4.0,7.0,50,0.00,,---,0.00,VWS V14.01,2013-07-10 16:22:00,
2013-07-10 11:27:00,93.5,70.9,29.99,SSW,207,6.0,12.0,48,0.00,,---,0.00,VWS V14.01,2013-07-10 16:27:00,
2013-07-10 11:32:00,93.3,71.3,30.00,SSW,196,5.0,7.0,49,0.00,,---,0.00,VWS V14.01,2013-07-10 16:32:00,
2013-07-10 11:37:00,93.2,71.2,29.99,South,191,5.0,6.0,49,0.00,,---,0.00,VWS V14.01,2013-07-10 16:37:00,
2013-07-10 11:43:00,93.5,70.9,29.99,SSW,211,2.0,6.0,48,0.00,,---,0.00,VWS V14.01,2013-07-10 16:43:00,
2013-07-10 11:48:00,94.6,72.5,29.99,SW,232,1.0,7.0,49,0.00,,---,0.00,VWS V14.01,2013-07-10 16:48:00,
2013-07-10 11:53:00,95.1,71.1,29.99,SW,215,4.0,9.0,46,0.00,,---,0.00,VWS V14.01,2013-07-10 16:53:00,
2013-07-10 11:58:00,94.8,70.8,29.99,West,269,1.0,6.0,46,0.00,,---,0.00,VWS V14.01,2013-07-10 16:58:00,
2013-07-10 12:03:00,95.2,71.8,29.99,WSW,239,4.0,6.0,47,0.00,,---,0.00,VWS V14.01,2013-07-10 17:03:00,
2013-07-10 12:08:00,95.6,72.2,29.99,SSW,209,5.0,10.0,47,0.00,,---,0.00,VWS V14.01,2013-07-10 17:08:00,
2013-07-10 12:13:00,95.2,71.8,29.99,SSW,205,1.0,5.0,47,0.00,,---,0.00,VWS V14.01,2013-07-10 17:13:00,
2013-07-10 12:18:00,95.4,71.3,29.98,SSW,202,9.0,9.0,46,0.00,,---,0.00,VWS V14.01,2013-07-10 17:18:00,
2013-07-10 12:20:00,95.4,71.3,29.98,SSW,202,6.0,9.0,46,0.00,,---,0.00,VWS V14.01,2013-07-10 17:20:00,
2013-07-10 12:25:00,96.2,72.7,29.98,SE,146,4.0,8.0,47,0.00,,---,0.00,VWS V14.01,2013-07-10 17:25:00,
2013-07-10 12:30:00,96.2,72.1,29.99,South,171,3.0,11.0,46,0.00,,---,0.00,VWS V14.01,2013-07-10 17:30:00,
2013-07-10 12:35:00,96.2,72.1,29.98,SW,232,5.0,7.0,46,0.00,,---,0.00,VWS V14.01,2013-07-10 17:35:00,
2013-07-10 12:40:00,96.2,71.4,29.98,SE,140,5.0,10.0,45,0.00,,---,0.00,VWS V14.01,2013-07-10 17:40:00,
2013-07-10 12:45:00,95.8,70.4,29.98,SE,132,4.0,6.0,44,0.00,,---,0.00,VWS V14.01,2013-07-10 17:45:00,
2013-07-10 12:50:00,95.9,71.2,29.98,SW,230,2.0,10.0,45,0.00,,---,0.00,VWS V14.01,2013-07-10 17:50:00,
2013-07-10 12:55:00,96.3,70.9,29.98,West,271,0.0,7.0,44,0.00,,---,0.00,VWS V14.01,2013-07-10 17:55:00,
2013-07-10 13:00:00,96.5,71.0,29.97,WSW,239,4.0,6.0,44,0.00,,---,0.00,VWS V14.01,2013-07-10 18:00:00,
2013-07-10 13:05:00,96.8,71.3,29.97,SW,231,0.0,3.0,44,0.00,,---,0.00,VWS V14.01,2013-07-10 18:05:00,
2013-07-10 13:11:00,96.9,70.7,29.97,SSW,199,2.0,7.0,43,0.00,,---,0.00,VWS V14.01,2013-07-10 18:11:00,
2013-07-10 13:16:00,96.4,70.9,29.97,WSW,257,0.0,5.0,44,0.00,,---,0.00,VWS V14.01,2013-07-10 18:16:00,
2013-07-10 13:21:00,96.3,70.2,29.97,SE,138,4.0,9.0,43,0.00,,---,0.00,VWS V14.01,2013-07-10 18:21:00,
2013-07-10 13:26:00,96.5,70.4,29.97,South,191,4.0,6.0,43,0.00,,---,0.00,VWS V14.01,2013-07-10 18:26:00,
2013-07-10 13:31:00,96.7,70.5,29.96,SSW,204,6.0,10.0,43,0.00,,---,0.00,VWS V14.01,2013-07-10 18:31:00,
2013-07-10 13:36:00,96.5,70.4,29.96,SW,218,2.0,5.0,43,0.00,,---,0.00,VWS V14.01,2013-07-10 18:36:00,
2013-07-10 13:41:00,97.2,71.0,29.96,WSW,251,6.0,10.0,43,0.00,,---,0.00,VWS V14.01,2013-07-10 18:41:00,
2013-07-10 13:46:00,97.6,69.9,29.96,SW,223,3.0,4.0,41,0.00,,---,0.00,VWS V14.01,2013-07-10 18:46:00,
2013-07-10 13:51:00,98.2,70.5,29.96,WSW,251,2.0,6.0,41,0.00,,---,0.00,VWS V14.01,2013-07-10 18:51:00,
2013-07-10 13:56:00,98.5,70.0,29.96,SSW,205,2.0,4.0,40,0.00,,---,0.00,VWS V14.01,2013-07-10 18:56:00,
2013-07-10 14:01:00,98.4,69.9,29.96,SSE,164,0.0,7.0,40,0.00,,---,0.00,VWS V14.01,2013-07-10 19:01:00,
2013-07-10 14:06:00,98.8,71.0,29.95,SE,141,4.0,5.0,41,0.00,,---,0.00,VWS V14.01,2013-07-10 19:06:00,
2013-07-10 14:12:00,98.9,69.6,29.95,SSE,147,5.0,5.0,39,0.00,,---,0.00,VWS V14.01,2013-07-10 19:12:00,
2013-07-10 14:17:00,98.9,68.9,29.95,WSW,248,0.0,2.0,38,0.00,,---,0.00,VWS V14.01,2013-07-10 19:17:00,
2013-07-10 14:22:00,99.5,69.4,29.95,SW,233,4.0,8.0,38,0.00,,---,0.00,VWS V14.01,2013-07-10 19:22:00,
2013-07-10 14:27:00,100.2,70.0,29.94,SSE,165,5.0,10.0,38,0.00,,---,0.00,VWS V14.01,2013-07-10 19:27:00,
2013-07-10 14:32:00,99.2,69.2,29.94,SE,134,1.0,7.0,38,0.00,,---,0.00,VWS V14.01,2013-07-10 19:32:00,
2013-07-10 14:37:00,98.6,70.1,29.94,SSW,201,1.0,5.0,40,0.00,,---,0.00,VWS V14.01,2013-07-10 19:37:00,
2013-07-10 14:42:00,99.5,70.2,29.94,SSW,209,1.0,2.0,39,0.00,,---,0.00,VWS V14.01,2013-07-10 19:42:00,
2013-07-10 14:47:00,98.7,69.5,29.94,SE,128,5.0,7.0,39,0.00,,---,0.00,VWS V14.01,2013-07-10 19:47:00,
2013-07-10 14:52:00,97.9,70.2,29.93,SE,138,2.0,6.0,41,0.00,,---,0.00,VWS V14.01,2013-07-10 19:52:00,
2013-07-10 14:57:00,97.8,68.7,29.93,SE,128,8.0,12.0,39,0.00,,---,0.00,VWS V14.01,2013-07-10 19:57:00,
2013-07-10 15:02:00,97.5,69.9,29.93,SE,128,6.0,7.0,41,0.00,,---,0.00,VWS V14.01,2013-07-10 20:02:00,
2013-07-10 15:08:00,97.7,68.6,29.93,South,169,2.0,8.0,39,0.00,,---,0.00,VWS V14.01,2013-07-10 20:08:00,
2013-07-10 15:13:00,98.6,69.4,29.93,South,180,3.0,6.0,39,0.00,,---,0.00,VWS V14.01,2013-07-10 20:13:00,
2013-07-10 15:18:00,99.0,69.0,29.93,NE,40,1.0,4.0,38,0.00,,---,0.00,VWS V14.01,2013-07-10 20:18:00,
2013-07-10 15:23:00,98.0,68.8,29.93,East,101,1.0,5.0,39,0.00,,---,0.00,VWS V14.01,2013-07-10 20:23:00,
2013-07-10 15:28:00,97.3,69.7,29.93,ESE,109,2.0,3.0,41,0.00,,---,0.00,VWS V14.01,2013-07-10 20:28:00,
2013-07-10 15:33:00,97.1,70.9,29.92,East,95,5.0,7.0,43,0.00,,---,0.00,VWS V14.01,2013-07-10 20:33:00,
2013-07-10 15:38:00,96.8,70.6,29.92,East,97,3.0,6.0,43,0.00,,---,0.00,VWS V14.01,2013-07-10 20:38:00,
2013-07-10 15:43:00,96.4,69.6,29.92,East,89,2.0,5.0,42,0.00,,---,0.00,VWS V14.01,2013-07-10 20:43:00,
2013-07-10 15:48:00,96.1,70.0,29.92,ENE,67,1.0,2.0,43,0.00,,---,0.00,VWS V14.01,2013-07-10 20:48:00,
2013-07-10 15:53:00,96.1,70.0,29.91,ENE,67,0.0,1.0,43,0.00,,---,0.00,VWS V14.01,2013-07-10 20:53:00,
2013-07-10 15:58:00,96.1,67.9,29.91,ENE,67,0.0,1.0,40,0.00,,---,0.00,VWS V14.01,2013-07-10 20:58:00,
2013-07-10 16:03:00,96.7,69.1,29.91,NE,55,2.0,3.0,41,0.00,,---,0.00,VWS V14.01,2013-07-10 21:03:00,
2013-07-10 16:08:00,97.1,70.2,29.91,ESE,116,4.0,5.0,42,0.00,,---,0.00,VWS V14.01,2013-07-10 21:08:00,
2013-07-10 16:13:00,97.4,70.5,29.90,NE,53,7.0,8.0,42,0.00,,---,0.00,VWS V14.01,2013-07-10 21:13:00,
2013-07-10 16:18:00,97.3,71.8,29.90,East,94,3.0,8.0,44,0.00,,---,0.00,VWS V14.01,2013-07-10 21:18:00,
2013-07-10 16:23:00,97.6,70.7,29.90,SSW,198,3.0,6.0,42,0.00,,---,0.00,VWS V14.01,2013-07-10 21:23:00,
2013-07-10 16:29:00,98.4,68.4,29.90,SSE,166,3.0,9.0,38,0.00,,---,0.00,VWS V14.01,2013-07-10 21:29:00,
2013-07-10 16:34:00,98.9,68.1,29.89,SE,140,1.0,8.0,37,0.00,,---,0.00,VWS V14.01,2013-07-10 21:34:00,
2013-07-10 16:39:00,99.1,68.3,29.89,SSW,196,6.0,9.0,37,0.00,,---,0.00,VWS V14.01,2013-07-10 21:39:00,
2013-07-10 16:44:00,99.4,69.3,29.89,SE,137,6.0,9.0,38,0.00,,---,0.00,VWS V14.01,2013-07-10 21:44:00,
2013-07-10 16:49:00,98.9,68.9,29.88,ESE,123,2.0,5.0,38,0.00,,---,0.00,VWS V14.01,2013-07-10 21:49:00,
2013-07-10 16:54:00,99.1,68.3,29.88,South,171,0.0,7.0,37,0.00,,---,0.00,VWS V14.01,2013-07-10 21:54:00,
2013-07-10 16:59:00,99.5,69.4,29.87,SE,128,4.0,7.0,38,0.00,,---,0.00,VWS V14.01,2013-07-10 21:59:00,
2013-07-10 17:04:00,99.5,67.8,29.87,SSW,194,2.0,10.0,36,0.00,,---,0.00,VWS V14.01,2013-07-10 22:04:00,
2013-07-10 17:09:00,99.5,67.0,29.87,SE,145,0.0,5.0,35,0.00,,---,0.00,VWS V14.01,2013-07-10 22:09:00,
2013-07-10 17:14:00,99.8,68.1,29.86,SE,135,3.0,6.0,36,0.00,,---,0.00,VWS V14.01,2013-07-10 22:14:00,
2013-07-10 17:19:00,99.9,67.4,29.86,SE,146,4.0,4.0,35,0.00,,---,0.00,VWS V14.01,2013-07-10 22:19:00,
2013-07-10 17:24:00,100.3,67.7,29.86,ESE,119,9.0,9.0,35,0.00,,---,0.00,VWS V14.01,2013-07-10 22:24:00,
2013-07-10 17:29:00,99.8,66.4,29.86,SE,134,4.0,7.0,34,0.00,,---,0.00,VWS V14.01,2013-07-10 22:29:00,
2013-07-10 17:34:00,99.5,67.8,29.86,SE,128,2.0,4.0,36,0.00,,---,0.00,VWS V14.01,2013-07-10 22:34:00,
2013-07-10 17:40:00,99.2,69.2,29.86,SSE,148,3.0,8.0,38,0.00,,---,0.00,VWS V14.01,2013-07-10 22:40:00,
2013-07-10 17:45:00,99.3,68.5,29.85,SSE,147,4.0,5.0,37,0.00,,---,0.00,VWS V14.01,2013-07-10 22:45:00,
2013-07-10 17:50:00,99.3,69.2,29.85,ESE,117,3.0,9.0,38,0.00,,---,0.00,VWS V14.01,2013-07-10 22:50:00,
2013-07-10 17:55:00,99.0,66.6,29.85,SSE,157,2.0,7.0,35,0.00,,---,0.00,VWS V14.01,2013-07-10 22:55:00,
2013-07-10 18:00:00,99.3,66.8,29.85,South,184,3.0,4.0,35,0.00,,---,0.00,VWS V14.01,2013-07-10 23:00:00,
2013-07-10 18:01:00,99.4,66.9,29.85,South,184,4.0,4.0,35,0.00,,---,0.00,VWS V14.01,2013-07-10 23:01:00,
2013-07-10 18:06:00,99.8,66.4,29.85,South,173,1.0,4.0,34,0.00,,---,0.00,VWS V14.01,2013-07-10 23:06:00,
2013-07-10 18:11:00,99.9,67.4,29.85,SE,146,2.0,4.0,35,0.00,,---,0.00,VWS V14.01,2013-07-10 23:11:00,
2013-07-10 18:16:00,99.9,66.5,29.85,SSW,192,1.0,5.0,34,0.00,,---,0.00,VWS V14.01,2013-07-10 23:16:00,
2013-07-10 18:21:00,100.4,67.0,29.85,SSW,192,3.0,6.0,34,0.00,,---,0.00,VWS V14.01,2013-07-10 23:21:00,
2013-07-10 18:26:00,100.6,66.3,29.85,SSW,205,0.0,4.0,33,0.00,,---,0.00,VWS V14.01,2013-07-10 23:26:00,
2013-07-10 18:31:00,100.9,66.5,29.85,SSE,156,2.0,7.0,33,0.00,,---,0.00,VWS V14.01,2013-07-10 23:31:00,
2013-07-10 18:37:00,100.5,66.2,29.85,SSW,196,1.0,5.0,33,0.00,,---,0.00,VWS V14.01,2013-07-10 23:37:00,
2013-07-10 18:42:00,100.2,66.8,29.85,SE,129,3.0,7.0,34,0.00,,---,0.00,VWS V14.01,2013-07-10 23:42:00,
2013-07-10 18:47:00,99.3,66.8,29.85,SSE,165,1.0,5.0,35,0.00,,---,0.00,VWS V14.01,2013-07-10 23:47:00,
2013-07-10 18:52:00,98.9,67.3,29.85,SSE,157,2.0,2.0,36,0.00,,---,0.00,VWS V14.01,2013-07-10 23:52:00,
2013-07-10 18:57:00,98.5,70.0,29.85,SE,126,0.0,4.0,40,0.00,,---,0.00,VWS V14.01,2013-07-10 23:57:00,
2013-07-10 19:02:00,97.8,68.7,29.85,SE,126,0.0,1.0,39,0.00,,---,0.00,VWS V14.01,2013-07-11 00:02:00,
2013-07-10 19:07:00,97.1,70.9,29.85,SE,126,0.0,1.0,43,0.00,,---,0.00,VWS V14.01,2013-07-11 00:07:00,
2013-07-10 19:12:00,96.3,68.8,29.85,SE,126,0.0,1.0,41,0.00,,---,0.00,VWS V14.01,2013-07-11 00:12:00,
2013-07-10 19:17:00,95.7,68.9,29.85,SE,126,0.0,2.0,42,0.00,,---,0.00,VWS V14.01,2013-07-11 00:17:00,
2013-07-10 19:22:00,95.2,69.2,29.85,SE,125,1.0,2.0,43,0.00,,---,0.00,VWS V14.01,2013-07-11 00:22:00,
2013-07-10 19:27:00,94.9,70.2,29.85,SE,125,0.0,2.0,45,0.00,,---,0.00,VWS V14.01,2013-07-11 00:27:00,
2013-07-10 19:32:00,94.6,70.6,29.84,SE,125,3.0,4.0,46,0.00,,---,0.00,VWS V14.01,2013-07-11 00:32:00,
2013-07-10 19:37:00,94.2,70.9,29.84,SE,125,2.0,3.0,47,0.00,,---,0.00,VWS V14.01,2013-07-11 00:37:00,
2013-07-10 19:43:00,93.8,72.4,29.84,SE,125,1.0,2.0,50,0.00,,---,0.00,VWS V14.01,2013-07-11 00:43:00,
2013-07-10 19:48:00,93.5,72.1,29.84,ESE,123,2.0,4.0,50,0.00,,---,0.00,VWS V14.01,2013-07-11 00:48:00,
2013-07-10 19:53:00,93.2,71.2,29.84,ESE,122,0.0,2.0,49,0.00,,---,0.00,VWS V14.01,2013-07-11 00:53:00,
2013-07-10 19:58:00,93.0,71.6,29.84,ESE,122,0.0,2.0,50,0.00,,---,0.00,VWS V14.01,2013-07-11 00:58:00,
2013-07-10 20:03:00,92.7,70.8,29.84,ESE,122,0.0,2.0,49,0.00,,---,0.00,VWS V14.01,2013-07-11 01:03:00,
2013-07-10 20:08:00,92.5,70.6,29.84,ESE,122,0.0,0.0,49,0.00,,---,0.00,VWS V14.01,2013-07-11 01:08:00,
2013-07-10 20:13:00,92.2,72.1,29.84,East,86,0.0,0.0,52,0.00,,---,0.00,VWS V14.01,2013-07-11 01:13:00,
2013-07-10 20:18:00,91.8,71.1,29.84,East,101,0.0,0.0,51,0.00,,---,0.00,VWS V14.01,2013-07-11 01:18:00,
2013-07-10 20:23:00,91.5,72.0,29.84,East,101,0.0,0.0,53,0.00,,---,0.00,VWS V14.01,2013-07-11 01:23:00,
2013-07-10 20:28:00,91.0,74.2,29.84,East,101,0.0,0.0,58,0.00,,---,0.00,VWS V14.01,2013-07-11 01:28:00,
2013-07-10 20:33:00,90.2,72.9,29.84,East,101,0.0,0.0,57,0.00,,---,0.00,VWS V14.01,2013-07-11 01:33:00,
2013-07-10 20:38:00,89.5,74.8,29.84,East,101,0.0,0.0,62,0.00,,---,0.00,VWS V14.01,2013-07-11 01:38:00,
2013-07-10 20:43:00,88.9,71.7,29.84,East,101,0.0,0.0,57,0.00,,---,0.00,VWS V14.01,2013-07-11 01:43:00,
2013-07-10 20:49:00,88.5,72.3,29.84,East,101,0.0,0.0,59,0.00,,---,0.00,VWS V14.01,2013-07-11 01:49:00,
2013-07-10 20:54:00,87.9,73.7,29.84,East,101,0.0,0.0,63,0.00,,---,0.00,VWS V14.01,2013-07-11 01:54:00,
2013-07-10 20:59:00,87.1,73.0,29.84,East,101,0.0,0.0,63,0.00,,---,0.00,VWS V14.01,2013-07-11 01:59:00,
2013-07-10 21:04:00,86.6,72.0,29.85,East,101,0.0,0.0,62,0.00,,---,0.00,VWS V14.01,2013-07-11 02:04:00,
2013-07-10 21:09:00,86.3,73.6,29.85,East,101,0.0,0.0,66,0.00,,---,0.00,VWS V14.01,2013-07-11 02:09:00,
2013-07-10 21:14:00,85.7,73.0,29.85,East,101,0.0,0.0,66,0.00,,---,0.00,VWS V14.01,2013-07-11 02:14:00,
2013-07-10 21:19:00,85.2,72.6,29.85,East,101,0.0,0.0,66,0.00,,---,0.00,VWS V14.01,2013-07-11 02:19:00,
2013-07-10 21:24:00,84.8,72.2,29.86,East,101,0.0,0.0,66,0.00,,---,0.00,VWS V14.01,2013-07-11 02:24:00,
2013-07-10 21:29:00,84.6,72.4,29.86,East,101,0.0,0.0,67,0.00,,---,0.00,VWS V14.01,2013-07-11 02:29:00,
2013-07-10 21:34:00,84.3,72.2,29.86,East,101,0.0,0.0,67,0.00,,---,0.00,VWS V14.01,2013-07-11 02:34:00,
2013-07-10 21:39:00,84.3,70.3,29.86,East,101,0.0,0.0,63,0.00,,---,0.00,VWS V14.01,2013-07-11 02:39:00,
2013-07-10 21:44:00,84.7,70.7,29.86,East,101,0.0,0.0,63,0.00,,---,0.00,VWS V14.01,2013-07-11 02:44:00,
2013-07-10 21:50:00,85.6,70.6,29.86,East,101,0.0,0.0,61,0.00,,---,0.00,VWS V14.01,2013-07-11 02:50:00,
2013-07-10 21:55:00,86.0,71.9,29.86,East,101,0.0,0.0,63,0.00,,---,0.00,VWS V14.01,2013-07-11 02:55:00,
2013-07-10 22:00:00,85.7,71.7,29.86,East,101,0.0,0.0,63,0.00,,---,0.00,VWS V14.01,2013-07-11 03:00:00,
2013-07-10 22:05:00,84.7,72.1,29.86,East,101,0.0,0.0,66,0.00,,---,0.00,VWS V14.01,2013-07-11 03:05:00,
2013-07-10 22:10:00,83.7,71.6,29.87,East,101,0.0,0.0,67,0.00,,---,0.00,VWS V14.01,2013-07-11 03:10:00,
2013-07-10 22:15:00,83.3,71.2,29.87,East,101,0.0,0.0,67,0.00,,---,0.00,VWS V14.01,2013-07-11 03:15:00,
2013-07-10 22:20:00,83.4,71.3,29.87,East,101,0.0,0.0,67,0.00,,---,0.00,VWS V14.01,2013-07-11 03:20:00,
2013-07-10 22:25:00,83.4,71.7,29.87,East,101,0.0,0.0,68,0.00,,---,0.00,VWS V14.01,2013-07-11 03:25:00,
2013-07-10 22:30:00,83.2,71.6,29.87,East,101,0.0,0.0,68,0.00,,---,0.00,VWS V14.01,2013-07-11 03:30:00,
2013-07-10 22:35:00,82.8,71.6,29.87,East,101,0.0,0.0,69,0.00,,---,0.00,VWS V14.01,2013-07-11 03:35:00,
2013-07-10 22:40:00,82.4,70.3,29.88,East,101,0.0,0.0,67,0.00,,---,0.00,VWS V14.01,2013-07-11 03:40:00,
2013-07-10 22:46:00,82.3,71.1,29.88,East,101,0.0,0.0,69,0.00,,---,0.00,VWS V14.01,2013-07-11 03:46:00,
2013-07-10 22:51:00,82.2,71.0,29.88,East,101,0.0,0.0,69,0.00,,---,0.00,VWS V14.01,2013-07-11 03:51:00,
2013-07-10 22:56:00,82.1,70.9,29.88,East,101,0.0,0.0,69,0.00,,---,0.00,VWS V14.01,2013-07-11 03:56:00,
2013-07-10 23:01:00,82.2,69.3,29.88,East,101,0.0,1.0,65,0.00,,---,0.00,VWS V14.01,2013-07-11 04:01:00,
2013-07-10 23:02:00,82.2,69.7,29.88,East,101,1.0,1.0,66,0.00,,---,0.00,VWS V14.01,2013-07-11 04:02:00,
2013-07-10 23:07:00,82.4,69.0,29.88,East,101,0.0,0.0,64,0.00,,---,0.00,VWS V14.01,2013-07-11 04:07:00,
2013-07-10 23:12:00,82.6,70.5,29.88,East,101,0.0,0.0,67,0.00,,---,0.00,VWS V14.01,2013-07-11 04:12:00,
2013-07-10 23:17:00,82.7,69.8,29.88,East,101,0.0,0.0,65,0.00,,---,0.00,VWS V14.01,2013-07-11 04:17:00,
2013-07-10 23:23:00,83.0,69.1,29.88,East,101,0.0,0.0,63,0.00,,---,0.00,VWS V14.01,2013-07-11 04:23:00,
2013-07-10 23:28:00,83.3,68.9,29.88,East,101,1.0,1.0,62,0.00,,---,0.00,VWS V14.01,2013-07-11 04:28:00,
2013-07-10 23:33:00,83.8,68.0,29.88,ESE,107,1.0,3.0,59,0.00,,---,0.00,VWS V14.01,2013-07-11 04:33:00,
2013-07-10 23:38:00,84.8,68.4,29.88,SSE,153,1.0,5.0,58,0.00,,---,0.00,VWS V14.01,2013-07-11 04:38:00,
2013-07-10 23:43:00,85.5,67.5,29.88,SSE,163,0.0,4.0,55,0.00,,---,0.00,VWS V14.01,2013-07-11 04:43:00,
2013-07-10 23:48:00,85.9,67.9,29.88,SSE,163,2.0,3.0,55,0.00,,---,0.00,VWS V14.01,2013-07-11 04:48:00,
2013-07-10 23:53:00,86.2,68.2,29.88,SSE,163,0.0,3.0,55,0.00,,---,0.00,VWS V14.01,2013-07-11 04:53:00,
2013-07-10 23:58:00,86.3,68.2,29.88,South,170,0.0,2.0,55,0.00,,---,0.00,VWS V14.01,2013-07-11 04:58:00,